sensor_id;sensor_type;location;lat;lon;timestamp;P1;durP1;ratioP1;P2;durP2;ratioP2
67721;SDS011;58309;45.292;11.820;2022-09-09T00:00:48;39.63;;;19.20;;
67721;SDS011;58309;45.292;11.820;2022-09-09T00:03:21;48.00;;;24.65;;
67721;SDS011;58309;45.292;11.820;2022-09-09T00:08:28;45.95;;;24.77;;
67721;SDS011;58309;45.292;11.820;2022-09-09T00:11:14;43.83;;;22.73;;
67721;SDS011;58309;45.292;11.820;2022-09-09T00:13:48;44.67;;;25.17;;
67721;SDS011;58309;45.292;11.820;2022-09-09T00:16:24;51.67;;;27.73;;
67721;SDS011;58309;45.292;11.820;2022-09-09T00:18:57;52.75;;;28.55;;
67721;SDS011;58309;45.292;11.820;2022-09-09T00:24:28;77.80;;;40.60;;
67721;SDS011;58309;45.292;11.820;2022-09-09T00:27:01;78.18;;;42.00;;
67721;SDS011;58309;45.292;11.820;2022-09-09T00:29:45;78.20;;;36.72;;
67721;SDS011;58309;45.292;11.820;2022-09-09T00:32:18;62.42;;;32.17;;
67721;SDS011;58309;45.292;11.820;2022-09-09T00:37:23;66.15;;;33.50;;
67721;SDS011;58309;45.292;11.820;2022-09-09T00:39:51;80.57;;;37.00;;
67721;SDS011;58309;45.292;11.820;2022-09-09T00:47:52;40.00;;;22.00;;
67721;SDS011;58309;45.292;11.820;2022-09-09T00:53:15;54.92;;;24.70;;
67721;SDS011;58309;45.292;11.820;2022-09-09T00:58:26;26.27;;;13.02;;
67721;SDS011;58309;45.292;11.820;2022-09-09T01:03:34;22.83;;;10.68;;
67721;SDS011;58309;45.292;11.820;2022-09-09T01:22:11;21.63;;;10.03;;
67721;SDS011;58309;45.292;11.820;2022-09-09T01:25:19;17.88;;;10.55;;
67721;SDS011;58309;45.292;11.820;2022-09-09T01:27:46;19.75;;;10.95;;
67721;SDS011;58309;45.292;11.820;2022-09-09T01:30:15;21.42;;;11.95;;
67721;SDS011;58309;45.292;11.820;2022-09-09T01:35:32;21.17;;;11.10;;
67721;SDS011;58309;45.292;11.820;2022-09-09T01:38:16;21.33;;;10.75;;
67721;SDS011;58309;45.292;11.820;2022-09-09T01:40:43;16.83;;;10.63;;
67721;SDS011;58309;45.292;11.820;2022-09-09T01:43:09;18.92;;;10.80;;
67721;SDS011;58309;45.292;11.820;2022-09-09T01:45:35;16.30;;;9.93;;
67721;SDS011;58309;45.292;11.820;2022-09-09T01:48:00;18.23;;;10.55;;
67721;SDS011;58309;45.292;11.820;2022-09-09T01:50:27;23.30;;;11.30;;
67721;SDS011;58309;45.292;11.820;2022-09-09T01:52:54;18.42;;;10.35;;
67721;SDS011;58309;45.292;11.820;2022-09-09T02:00:41;22.90;;;12.32;;
67721;SDS011;58309;45.292;11.820;2022-09-09T02:03:29;19.00;;;11.48;;
67721;SDS011;58309;45.292;11.820;2022-09-09T02:08:45;20.98;;;12.10;;
67721;SDS011;58309;45.292;11.820;2022-09-09T02:13:40;22.73;;;12.45;;
67721;SDS011;58309;45.292;11.820;2022-09-09T02:18:48;23.02;;;12.48;;
67721;SDS011;58309;45.292;11.820;2022-09-09T02:21:20;21.80;;;13.20;;
67721;SDS011;58309;45.292;11.820;2022-09-09T02:23:47;25.05;;;13.25;;
67721;SDS011;58309;45.292;11.820;2022-09-09T02:26:17;21.63;;;13.15;;
67721;SDS011;58309;45.292;11.820;2022-09-09T02:28:47;21.10;;;13.65;;
67721;SDS011;58309;45.292;11.820;2022-09-09T02:31:16;22.85;;;13.65;;
67721;SDS011;58309;45.292;11.820;2022-09-09T02:33:45;21.25;;;13.82;;
67721;SDS011;58309;45.292;11.820;2022-09-09T02:36:18;24.98;;;14.10;;
67721;SDS011;58309;45.292;11.820;2022-09-09T02:38:46;21.27;;;14.15;;
67721;SDS011;58309;45.292;11.820;2022-09-09T02:43:44;21.73;;;13.87;;
67721;SDS011;58309;45.292;11.820;2022-09-09T02:49:05;20.85;;;12.85;;
67721;SDS011;58309;45.292;11.820;2022-09-09T02:51:46;21.23;;;12.57;;
67721;SDS011;58309;45.292;11.820;2022-09-09T02:56:51;21.30;;;11.25;;
67721;SDS011;58309;45.292;11.820;2022-09-09T02:59:21;16.98;;;10.07;;
67721;SDS011;58309;45.292;11.820;2022-09-09T03:01:47;18.02;;;9.40;;
67721;SDS011;58309;45.292;11.820;2022-09-09T03:04:13;13.95;;;9.07;;
67721;SDS011;58309;45.292;11.820;2022-09-09T03:06:39;13.90;;;9.05;;
67721;SDS011;58309;45.292;11.820;2022-09-09T03:09:04;18.63;;;8.70;;
67721;SDS011;58309;45.292;11.820;2022-09-09T03:11:30;12.93;;;8.48;;
67721;SDS011;58309;45.292;11.820;2022-09-09T03:13:56;13.68;;;8.68;;
67721;SDS011;58309;45.292;11.820;2022-09-09T03:16:22;14.85;;;8.52;;
67721;SDS011;58309;45.292;11.820;2022-09-09T03:18:48;14.68;;;8.32;;
67721;SDS011;58309;45.292;11.820;2022-09-09T03:21:14;11.93;;;7.80;;
67721;SDS011;58309;45.292;11.820;2022-09-09T03:23:39;14.38;;;8.27;;
67721;SDS011;58309;45.292;11.820;2022-09-09T03:26:05;13.45;;;8.07;;
67721;SDS011;58309;45.292;11.820;2022-09-09T03:28:31;14.93;;;8.40;;
67721;SDS011;58309;45.292;11.820;2022-09-09T03:31:03;15.18;;;8.27;;
67721;SDS011;58309;45.292;11.820;2022-09-09T03:33:29;14.60;;;8.65;;
67721;SDS011;58309;45.292;11.820;2022-09-09T03:35:56;11.10;;;8.07;;
67721;SDS011;58309;45.292;11.820;2022-09-09T03:38:22;13.48;;;8.65;;
67721;SDS011;58309;45.292;11.820;2022-09-09T03:40:49;15.00;;;8.57;;
67721;SDS011;58309;45.292;11.820;2022-09-09T03:43:16;21.17;;;9.38;;
67721;SDS011;58309;45.292;11.820;2022-09-09T03:45:45;11.07;;;8.57;;
67721;SDS011;58309;45.292;11.820;2022-09-09T03:48:14;15.40;;;8.57;;
67721;SDS011;58309;45.292;11.820;2022-09-09T03:50:50;13.98;;;8.98;;
67721;SDS011;58309;45.292;11.820;2022-09-09T03:53:18;20.88;;;9.70;;
67721;SDS011;58309;45.292;11.820;2022-09-09T03:55:49;14.55;;;9.57;;
67721;SDS011;58309;45.292;11.820;2022-09-09T03:58:19;15.48;;;9.88;;
67721;SDS011;58309;45.292;11.820;2022-09-09T04:00:53;15.82;;;9.77;;
67721;SDS011;58309;45.292;11.820;2022-09-09T04:03:22;14.48;;;9.45;;
67721;SDS011;58309;45.292;11.820;2022-09-09T04:05:49;15.18;;;9.05;;
67721;SDS011;58309;45.292;11.820;2022-09-09T04:08:18;14.30;;;8.77;;
67721;SDS011;58309;45.292;11.820;2022-09-09T04:10:45;12.73;;;8.98;;
67721;SDS011;58309;45.292;11.820;2022-09-09T04:13:12;14.27;;;9.05;;
67721;SDS011;58309;45.292;11.820;2022-09-09T04:15:39;14.50;;;9.27;;
67721;SDS011;58309;45.292;11.820;2022-09-09T04:18:04;13.35;;;8.32;;
67721;SDS011;58309;45.292;11.820;2022-09-09T04:20:31;16.17;;;9.15;;
67721;SDS011;58309;45.292;11.820;2022-09-09T04:22:56;13.40;;;8.88;;
67721;SDS011;58309;45.292;11.820;2022-09-09T04:25:22;15.63;;;8.90;;
67721;SDS011;58309;45.292;11.820;2022-09-09T04:27:47;12.68;;;8.57;;
67721;SDS011;58309;45.292;11.820;2022-09-09T04:30:18;14.73;;;8.95;;
67721;SDS011;58309;45.292;11.820;2022-09-09T04:32:43;17.00;;;8.80;;
67721;SDS011;58309;45.292;11.820;2022-09-09T04:35:09;13.00;;;8.82;;
67721;SDS011;58309;45.292;11.820;2022-09-09T04:37:34;13.63;;;9.27;;
67721;SDS011;58309;45.292;11.820;2022-09-09T04:40:00;13.13;;;8.75;;
67721;SDS011;58309;45.292;11.820;2022-09-09T04:42:27;13.13;;;7.78;;
67721;SDS011;58309;45.292;11.820;2022-09-09T04:44:53;12.30;;;7.63;;
67721;SDS011;58309;45.292;11.820;2022-09-09T04:47:19;13.98;;;7.75;;
67721;SDS011;58309;45.292;11.820;2022-09-09T04:49:45;12.68;;;8.13;;
67721;SDS011;58309;45.292;11.820;2022-09-09T04:52:11;12.75;;;7.30;;
67721;SDS011;58309;45.292;11.820;2022-09-09T04:54:37;17.52;;;7.40;;
67721;SDS011;58309;45.292;11.820;2022-09-09T04:57:02;14.02;;;7.72;;
67721;SDS011;58309;45.292;11.820;2022-09-09T04:59:28;14.00;;;7.32;;
67721;SDS011;58309;45.292;11.820;2022-09-09T05:01:53;16.45;;;7.95;;
67721;SDS011;58309;45.292;11.820;2022-09-09T05:04:20;14.55;;;8.05;;
67721;SDS011;58309;45.292;11.820;2022-09-09T05:06:46;15.43;;;7.68;;
67721;SDS011;58309;45.292;11.820;2022-09-09T05:09:12;14.98;;;8.05;;
67721;SDS011;58309;45.292;11.820;2022-09-09T05:11:37;13.30;;;7.57;;
67721;SDS011;58309;45.292;11.820;2022-09-09T05:14:03;10.13;;;7.30;;
67721;SDS011;58309;45.292;11.820;2022-09-09T05:16:29;9.27;;;7.00;;
67721;SDS011;58309;45.292;11.820;2022-09-09T05:18:56;10.82;;;6.63;;
67721;SDS011;58309;45.292;11.820;2022-09-09T05:21:22;12.68;;;7.07;;
67721;SDS011;58309;45.292;11.820;2022-09-09T05:23:50;8.82;;;6.70;;
67721;SDS011;58309;45.292;11.820;2022-09-09T05:26:17;9.90;;;6.30;;
67721;SDS011;58309;45.292;11.820;2022-09-09T05:28:44;12.93;;;6.45;;
67721;SDS011;58309;45.292;11.820;2022-09-09T05:31:11;11.60;;;6.45;;
67721;SDS011;58309;45.292;11.820;2022-09-09T05:33:38;10.73;;;6.47;;
67721;SDS011;58309;45.292;11.820;2022-09-09T05:38:40;8.88;;;5.88;;
67721;SDS011;58309;45.292;11.820;2022-09-09T05:41:06;11.82;;;6.32;;
67721;SDS011;58309;45.292;11.820;2022-09-09T05:43:32;11.88;;;5.90;;
67721;SDS011;58309;45.292;11.820;2022-09-09T05:46:01;8.75;;;5.80;;
67721;SDS011;58309;45.292;11.820;2022-09-09T05:48:31;10.50;;;6.07;;
67721;SDS011;58309;45.292;11.820;2022-09-09T05:50:58;9.88;;;5.28;;
67721;SDS011;58309;45.292;11.820;2022-09-09T05:53:25;8.50;;;5.53;;
67721;SDS011;58309;45.292;11.820;2022-09-09T05:56:07;7.90;;;5.88;;
67721;SDS011;58309;45.292;11.820;2022-09-09T05:58:44;10.60;;;5.47;;
67721;SDS011;58309;45.292;11.820;2022-09-09T06:01:13;9.57;;;5.80;;
67721;SDS011;58309;45.292;11.820;2022-09-09T06:03:40;13.80;;;5.43;;
67721;SDS011;58309;45.292;11.820;2022-09-09T06:06:08;9.32;;;5.47;;
67721;SDS011;58309;45.292;11.820;2022-09-09T06:08:36;12.30;;;5.60;;
67721;SDS011;58309;45.292;11.820;2022-09-09T06:13:33;11.07;;;6.10;;
67721;SDS011;58309;45.292;11.820;2022-09-09T06:16:00;9.55;;;5.63;;
67721;SDS011;58309;45.292;11.820;2022-09-09T06:18:26;9.48;;;5.90;;
67721;SDS011;58309;45.292;11.820;2022-09-09T06:20:55;11.15;;;5.85;;
67721;SDS011;58309;45.292;11.820;2022-09-09T06:28:32;7.82;;;6.20;;
67721;SDS011;58309;45.292;11.820;2022-09-09T06:31:02;18.33;;;6.82;;
67721;SDS011;58309;45.292;11.820;2022-09-09T06:33:33;10.50;;;6.75;;
67721;SDS011;58309;45.292;11.820;2022-09-09T06:36:00;8.70;;;6.30;;
67721;SDS011;58309;45.292;11.820;2022-09-09T06:38:27;13.25;;;6.75;;
67721;SDS011;58309;45.292;11.820;2022-09-09T06:40:56;10.80;;;6.90;;
67721;SDS011;58309;45.292;11.820;2022-09-09T06:43:24;12.82;;;6.53;;
67721;SDS011;58309;45.292;11.820;2022-09-09T06:45:58;14.65;;;6.85;;
67721;SDS011;58309;45.292;11.820;2022-09-09T06:48:29;10.68;;;7.22;;
67721;SDS011;58309;45.292;11.820;2022-09-09T06:51:05;13.40;;;6.78;;
67721;SDS011;58309;45.292;11.820;2022-09-09T06:53:31;11.27;;;6.32;;
67721;SDS011;58309;45.292;11.820;2022-09-09T06:55:59;9.73;;;6.47;;
67721;SDS011;58309;45.292;11.820;2022-09-09T06:58:27;13.60;;;6.85;;
67721;SDS011;58309;45.292;11.820;2022-09-09T07:01:01;9.30;;;6.22;;
67721;SDS011;58309;45.292;11.820;2022-09-09T07:03:28;12.35;;;6.20;;
67721;SDS011;58309;45.292;11.820;2022-09-09T07:05:54;9.25;;;6.53;;
67721;SDS011;58309;45.292;11.820;2022-09-09T07:08:21;11.88;;;6.15;;
67721;SDS011;58309;45.292;11.820;2022-09-09T07:10:47;12.18;;;6.03;;
67721;SDS011;58309;45.292;11.820;2022-09-09T07:13:13;12.15;;;6.30;;
67721;SDS011;58309;45.292;11.820;2022-09-09T07:15:40;12.07;;;6.65;;
67721;SDS011;58309;45.292;11.820;2022-09-09T07:18:07;11.23;;;5.68;;
67721;SDS011;58309;45.292;11.820;2022-09-09T07:20:35;8.73;;;5.78;;
67721;SDS011;58309;45.292;11.820;2022-09-09T07:23:00;15.82;;;6.10;;
67721;SDS011;58309;45.292;11.820;2022-09-09T07:25:26;10.05;;;6.07;;
67721;SDS011;58309;45.292;11.820;2022-09-09T07:27:55;14.93;;;5.80;;
67721;SDS011;58309;45.292;11.820;2022-09-09T07:30:21;13.27;;;5.85;;
67721;SDS011;58309;45.292;11.820;2022-09-09T07:32:47;10.25;;;6.05;;
67721;SDS011;58309;45.292;11.820;2022-09-09T07:35:12;10.68;;;5.70;;
67721;SDS011;58309;45.292;11.820;2022-09-09T07:37:38;12.07;;;5.68;;
67721;SDS011;58309;45.292;11.820;2022-09-09T07:40:03;13.07;;;6.05;;
67721;SDS011;58309;45.292;11.820;2022-09-09T07:42:30;12.52;;;6.03;;
67721;SDS011;58309;45.292;11.820;2022-09-09T07:44:56;12.00;;;5.50;;
67721;SDS011;58309;45.292;11.820;2022-09-09T07:47:22;10.43;;;5.93;;
67721;SDS011;58309;45.292;11.820;2022-09-09T07:49:49;13.45;;;5.88;;
67721;SDS011;58309;45.292;11.820;2022-09-09T07:52:14;10.05;;;5.68;;
67721;SDS011;58309;45.292;11.820;2022-09-09T07:54:41;13.50;;;5.70;;
67721;SDS011;58309;45.292;11.820;2022-09-09T07:57:07;15.75;;;6.10;;
67721;SDS011;58309;45.292;11.820;2022-09-09T07:59:33;13.38;;;5.50;;
67721;SDS011;58309;45.292;11.820;2022-09-09T08:01:58;10.15;;;5.05;;
67721;SDS011;58309;45.292;11.820;2022-09-09T08:04:24;6.28;;;4.90;;
67721;SDS011;58309;45.292;11.820;2022-09-09T08:06:58;14.10;;;5.72;;
67721;SDS011;58309;45.292;11.820;2022-09-09T08:09:25;13.57;;;5.28;;
67721;SDS011;58309;45.292;11.820;2022-09-09T08:11:54;12.73;;;4.82;;
67721;SDS011;58309;45.292;11.820;2022-09-09T08:14:24;13.18;;;4.80;;
67721;SDS011;58309;45.292;11.820;2022-09-09T08:16:50;12.27;;;4.45;;
67721;SDS011;58309;45.292;11.820;2022-09-09T08:19:18;12.02;;;4.65;;
67721;SDS011;58309;45.292;11.820;2022-09-09T08:21:44;11.30;;;5.22;;
67721;SDS011;58309;45.292;11.820;2022-09-09T08:24:10;9.70;;;4.57;;
67721;SDS011;58309;45.292;11.820;2022-09-09T08:26:41;14.45;;;4.90;;
67721;SDS011;58309;45.292;11.820;2022-09-09T08:29:09;14.73;;;4.65;;
67721;SDS011;58309;45.292;11.820;2022-09-09T08:31:37;11.35;;;4.40;;
67721;SDS011;58309;45.292;11.820;2022-09-09T08:34:05;9.85;;;4.38;;
67721;SDS011;58309;45.292;11.820;2022-09-09T08:36:36;13.95;;;4.38;;
67721;SDS011;58309;45.292;11.820;2022-09-09T08:39:04;12.10;;;4.30;;
67721;SDS011;58309;45.292;11.820;2022-09-09T08:41:39;13.98;;;4.50;;
67721;SDS011;58309;45.292;11.820;2022-09-09T08:52:25;8.73;;;4.03;;
67721;SDS011;58309;45.292;11.820;2022-09-09T08:57:40;9.77;;;4.07;;
67721;SDS011;58309;45.292;11.820;2022-09-09T09:00:08;11.07;;;4.20;;
67721;SDS011;58309;45.292;11.820;2022-09-09T09:05:25;15.82;;;4.65;;
67721;SDS011;58309;45.292;11.820;2022-09-09T09:11:08;11.13;;;4.05;;
67721;SDS011;58309;45.292;11.820;2022-09-09T09:13:39;7.93;;;4.43;;
67721;SDS011;58309;45.292;11.820;2022-09-09T09:16:34;7.78;;;3.70;;
67721;SDS011;58309;45.292;11.820;2022-09-09T09:18:57;15.93;;;4.38;;
67721;SDS011;58309;45.292;11.820;2022-09-09T09:24:20;10.07;;;4.32;;
67721;SDS011;58309;45.292;11.820;2022-09-09T09:26:50;14.98;;;4.00;;
67721;SDS011;58309;45.292;11.820;2022-09-09T09:29:18;12.02;;;4.65;;
67721;SDS011;58309;45.292;11.820;2022-09-09T09:31:56;10.93;;;4.40;;
67721;SDS011;58309;45.292;11.820;2022-09-09T09:34:27;12.23;;;4.00;;
67721;SDS011;58309;45.292;11.820;2022-09-09T09:36:57;11.13;;;3.90;;
67721;SDS011;58309;45.292;11.820;2022-09-09T09:39:28;9.70;;;3.70;;
67721;SDS011;58309;45.292;11.820;2022-09-09T09:41:55;12.25;;;3.70;;
67721;SDS011;58309;45.292;11.820;2022-09-09T09:44:32;7.88;;;3.40;;
67721;SDS011;58309;45.292;11.820;2022-09-09T09:47:05;12.15;;;4.13;;
67721;SDS011;58309;45.292;11.820;2022-09-09T09:49:55;11.50;;;4.03;;
67721;SDS011;58309;45.292;11.820;2022-09-09T09:52:25;9.98;;;3.55;;
67721;SDS011;58309;45.292;11.820;2022-09-09T09:54:53;10.88;;;4.00;;
67721;SDS011;58309;45.292;11.820;2022-09-09T09:57:24;11.45;;;4.10;;
67721;SDS011;58309;45.292;11.820;2022-09-09T10:00:14;10.90;;;3.97;;
67721;SDS011;58309;45.292;11.820;2022-09-09T10:02:43;10.30;;;4.30;;
67721;SDS011;58309;45.292;11.820;2022-09-09T10:05:16;12.63;;;5.00;;
67721;SDS011;58309;45.292;11.820;2022-09-09T10:07:43;11.63;;;4.72;;
67721;SDS011;58309;45.292;11.820;2022-09-09T10:10:12;11.88;;;5.07;;
67721;SDS011;58309;45.292;11.820;2022-09-09T10:18:08;10.27;;;4.60;;
67721;SDS011;58309;45.292;11.820;2022-09-09T10:26:28;14.55;;;5.80;;
67721;SDS011;58309;45.292;11.820;2022-09-09T10:29:15;12.30;;;6.03;;
67721;SDS011;58309;45.292;11.820;2022-09-09T10:35:21;13.50;;;5.70;;
67721;SDS011;58309;45.292;11.820;2022-09-09T10:40:43;10.93;;;5.20;;
67721;SDS011;58309;45.292;11.820;2022-09-09T10:54:29;14.57;;;6.15;;
67721;SDS011;58309;45.292;11.820;2022-09-09T10:57:20;8.60;;;5.90;;
67721;SDS011;58309;45.292;11.820;2022-09-09T10:59:54;14.00;;;5.85;;
67721;SDS011;58309;45.292;11.820;2022-09-09T11:02:29;11.10;;;5.37;;
67721;SDS011;58309;45.292;11.820;2022-09-09T11:07:30;11.15;;;5.63;;
67721;SDS011;58309;45.292;11.820;2022-09-09T11:09:59;10.75;;;4.20;;
67721;SDS011;58309;45.292;11.820;2022-09-09T11:12:29;7.15;;;4.40;;
67721;SDS011;58309;45.292;11.820;2022-09-09T11:15:14;10.30;;;3.47;;
67721;SDS011;58309;45.292;11.820;2022-09-09T11:18:10;7.43;;;3.80;;
67721;SDS011;58309;45.292;11.820;2022-09-09T11:20:44;6.93;;;3.20;;
67721;SDS011;58309;45.292;11.820;2022-09-09T11:23:21;4.15;;;2.33;;
67721;SDS011;58309;45.292;11.820;2022-09-09T11:26:03;3.45;;;2.55;;
67721;SDS011;58309;45.292;11.820;2022-09-09T11:31:38;4.67;;;2.07;;
67721;SDS011;58309;45.292;11.820;2022-09-09T11:42:43;6.72;;;1.83;;
67721;SDS011;58309;45.292;11.820;2022-09-09T11:45:30;3.70;;;1.70;;
67721;SDS011;58309;45.292;11.820;2022-09-09T11:47:59;3.83;;;1.80;;
67721;SDS011;58309;45.292;11.820;2022-09-09T11:53:03;2.03;;;1.40;;
67721;SDS011;58309;45.292;11.820;2022-09-09T11:56:06;3.47;;;1.50;;
67721;SDS011;58309;45.292;11.820;2022-09-09T11:58:42;3.20;;;1.60;;
67721;SDS011;58309;45.292;11.820;2022-09-09T12:01:38;2.33;;;1.50;;
67721;SDS011;58309;45.292;11.820;2022-09-09T12:06:43;6.97;;;2.58;;
67721;SDS011;58309;45.292;11.820;2022-09-09T12:11:49;3.63;;;2.45;;
67721;SDS011;58309;45.292;11.820;2022-09-09T12:14:22;16.67;;;3.28;;
67721;SDS011;58309;45.292;11.820;2022-09-09T12:17:09;7.20;;;3.03;;
67721;SDS011;58309;45.292;11.820;2022-09-09T12:19:47;13.73;;;3.65;;
67721;SDS011;58309;45.292;11.820;2022-09-09T12:22:37;4.38;;;3.45;;
67721;SDS011;58309;45.292;11.820;2022-09-09T12:25:30;5.30;;;3.25;;
67721;SDS011;58309;45.292;11.820;2022-09-09T12:28:06;10.90;;;3.78;;
67721;SDS011;58309;45.292;11.820;2022-09-09T12:30:56;5.13;;;3.40;;
67721;SDS011;58309;45.292;11.820;2022-09-09T12:33:34;7.63;;;4.05;;
67721;SDS011;58309;45.292;11.820;2022-09-09T12:36:00;5.20;;;3.85;;
67721;SDS011;58309;45.292;11.820;2022-09-09T12:38:35;8.10;;;4.30;;
67721;SDS011;58309;45.292;11.820;2022-09-09T12:41:02;8.93;;;4.00;;
67721;SDS011;58309;45.292;11.820;2022-09-09T12:43:31;7.82;;;3.83;;
67721;SDS011;58309;45.292;11.820;2022-09-09T12:46:03;6.03;;;3.60;;
67721;SDS011;58309;45.292;11.820;2022-09-09T12:48:36;5.78;;;2.85;;
67721;SDS011;58309;45.292;11.820;2022-09-09T12:51:14;7.07;;;3.40;;
67721;SDS011;58309;45.292;11.820;2022-09-09T12:53:59;4.03;;;3.47;;
67721;SDS011;58309;45.292;11.820;2022-09-09T12:56:26;6.10;;;3.90;;
67721;SDS011;58309;45.292;11.820;2022-09-09T12:58:55;8.63;;;4.60;;
67721;SDS011;58309;45.292;11.820;2022-09-09T13:01:27;8.40;;;4.32;;
67721;SDS011;58309;45.292;11.820;2022-09-09T13:03:55;8.43;;;3.97;;
67721;SDS011;58309;45.292;11.820;2022-09-09T13:06:24;8.05;;;4.60;;
67721;SDS011;58309;45.292;11.820;2022-09-09T13:08:59;8.70;;;4.85;;
67721;SDS011;58309;45.292;11.820;2022-09-09T13:11:49;14.45;;;4.38;;
67721;SDS011;58309;45.292;11.820;2022-09-09T13:14:18;9.05;;;4.32;;
67721;SDS011;58309;45.292;11.820;2022-09-09T13:16:58;7.47;;;3.30;;
67721;SDS011;58309;45.292;11.820;2022-09-09T13:19:25;7.75;;;2.67;;
67721;SDS011;58309;45.292;11.820;2022-09-09T13:21:54;5.53;;;2.92;;
67721;SDS011;58309;45.292;11.820;2022-09-09T13:24:44;6.07;;;2.58;;
67721;SDS011;58309;45.292;11.820;2022-09-09T13:27:31;6.82;;;3.00;;
67721;SDS011;58309;45.292;11.820;2022-09-09T13:29:57;4.40;;;2.72;;
67721;SDS011;58309;45.292;11.820;2022-09-09T13:32:23;9.25;;;3.13;;
67721;SDS011;58309;45.292;11.820;2022-09-09T13:34:55;4.90;;;2.80;;
67721;SDS011;58309;45.292;11.820;2022-09-09T13:37:24;6.22;;;2.30;;
67721;SDS011;58309;45.292;11.820;2022-09-09T13:39:55;4.03;;;2.50;;
67721;SDS011;58309;45.292;11.820;2022-09-09T13:42:25;5.32;;;2.30;;
67721;SDS011;58309;45.292;11.820;2022-09-09T13:44:53;5.13;;;2.60;;
67721;SDS011;58309;45.292;11.820;2022-09-09T13:47:21;4.55;;;2.28;;
67721;SDS011;58309;45.292;11.820;2022-09-09T13:50:20;3.22;;;2.40;;
67721;SDS011;58309;45.292;11.820;2022-09-09T13:52:59;3.47;;;2.47;;
67721;SDS011;58309;45.292;11.820;2022-09-09T13:55:26;4.60;;;2.55;;
67721;SDS011;58309;45.292;11.820;2022-09-09T14:00:29;4.00;;;2.60;;
67721;SDS011;58309;45.292;11.820;2022-09-09T14:02:56;5.85;;;2.85;;
67721;SDS011;58309;45.292;11.820;2022-09-09T14:05:22;7.80;;;2.42;;
67721;SDS011;58309;45.292;11.820;2022-09-09T14:07:48;4.35;;;1.95;;
67721;SDS011;58309;45.292;11.820;2022-09-09T14:10:14;7.15;;;2.08;;
67721;SDS011;58309;45.292;11.820;2022-09-09T14:12:41;5.30;;;2.13;;
67721;SDS011;58309;45.292;11.820;2022-09-09T14:15:07;3.08;;;1.92;;
67721;SDS011;58309;45.292;11.820;2022-09-09T14:17:34;3.65;;;1.60;;
67721;SDS011;58309;45.292;11.820;2022-09-09T14:20:01;2.97;;;1.70;;
67721;SDS011;58309;45.292;11.820;2022-09-09T14:22:34;2.13;;;1.70;;
67721;SDS011;58309;45.292;11.820;2022-09-09T14:25:00;3.25;;;2.22;;
67721;SDS011;58309;45.292;11.820;2022-09-09T14:27:26;4.30;;;1.98;;
67721;SDS011;58309;45.292;11.820;2022-09-09T14:29:52;3.53;;;2.70;;
67721;SDS011;58309;45.292;11.820;2022-09-09T14:32:18;3.45;;;2.35;;
67721;SDS011;58309;45.292;11.820;2022-09-09T14:34:44;4.88;;;2.58;;
67721;SDS011;58309;45.292;11.820;2022-09-09T14:37:10;4.93;;;2.50;;
67721;SDS011;58309;45.292;11.820;2022-09-09T14:39:35;6.88;;;2.90;;
67721;SDS011;58309;45.292;11.820;2022-09-09T14:42:01;4.10;;;2.80;;
67721;SDS011;58309;45.292;11.820;2022-09-09T14:44:27;5.78;;;3.30;;
67721;SDS011;58309;45.292;11.820;2022-09-09T14:46:53;8.70;;;3.25;;
67721;SDS011;58309;45.292;11.820;2022-09-09T14:49:19;4.95;;;3.00;;
67721;SDS011;58309;45.292;11.820;2022-09-09T14:51:45;4.15;;;2.63;;
67721;SDS011;58309;45.292;11.820;2022-09-09T14:54:11;5.07;;;3.17;;
67721;SDS011;58309;45.292;11.820;2022-09-09T14:56:37;5.82;;;3.03;;
67721;SDS011;58309;45.292;11.820;2022-09-09T14:59:03;3.53;;;2.65;;
67721;SDS011;58309;45.292;11.820;2022-09-09T15:01:30;3.22;;;2.50;;
67721;SDS011;58309;45.292;11.820;2022-09-09T15:04:00;2.97;;;2.50;;
67721;SDS011;58309;45.292;11.820;2022-09-09T15:06:28;3.30;;;2.63;;
67721;SDS011;58309;45.292;11.820;2022-09-09T15:08:55;4.88;;;2.90;;
67721;SDS011;58309;45.292;11.820;2022-09-09T15:11:25;4.23;;;2.53;;
67721;SDS011;58309;45.292;11.820;2022-09-09T15:13:53;5.97;;;2.92;;
67721;SDS011;58309;45.292;11.820;2022-09-09T15:16:19;6.80;;;3.03;;
67721;SDS011;58309;45.292;11.820;2022-09-09T15:18:46;5.78;;;2.63;;
67721;SDS011;58309;45.292;11.820;2022-09-09T15:21:15;5.07;;;2.58;;
67721;SDS011;58309;45.292;11.820;2022-09-09T15:23:43;4.45;;;2.50;;
67721;SDS011;58309;45.292;11.820;2022-09-09T15:26:09;3.45;;;2.40;;
67721;SDS011;58309;45.292;11.820;2022-09-09T15:28:36;3.90;;;2.42;;
67721;SDS011;58309;45.292;11.820;2022-09-09T15:31:05;6.50;;;3.47;;
67721;SDS011;58309;45.292;11.820;2022-09-09T15:33:36;2.50;;;2.30;;
67721;SDS011;58309;45.292;11.820;2022-09-09T15:36:15;3.28;;;2.17;;
67721;SDS011;58309;45.292;11.820;2022-09-09T15:38:45;6.22;;;2.22;;
67721;SDS011;58309;45.292;11.820;2022-09-09T15:41:15;5.90;;;2.47;;
67721;SDS011;58309;45.292;11.820;2022-09-09T15:43:44;4.82;;;2.28;;
67721;SDS011;58309;45.292;11.820;2022-09-09T15:48:52;4.07;;;2.47;;
67721;SDS011;58309;45.292;11.820;2022-09-09T15:51:22;4.53;;;2.15;;
67721;SDS011;58309;45.292;11.820;2022-09-09T15:53:48;3.40;;;2.40;;
67721;SDS011;58309;45.292;11.820;2022-09-09T15:56:19;3.95;;;2.30;;
67721;SDS011;58309;45.292;11.820;2022-09-09T15:58:44;4.57;;;2.53;;
67721;SDS011;58309;45.292;11.820;2022-09-09T16:01:10;4.38;;;2.30;;
67721;SDS011;58309;45.292;11.820;2022-09-09T16:03:42;4.60;;;2.47;;
67721;SDS011;58309;45.292;11.820;2022-09-09T16:06:08;3.78;;;2.22;;
67721;SDS011;58309;45.292;11.820;2022-09-09T16:08:35;6.60;;;2.30;;
67721;SDS011;58309;45.292;11.820;2022-09-09T16:13:34;6.20;;;2.50;;
67721;SDS011;58309;45.292;11.820;2022-09-09T16:16:01;3.97;;;2.28;;
67721;SDS011;58309;45.292;11.820;2022-09-09T16:19:03;5.65;;;2.30;;
67721;SDS011;58309;45.292;11.820;2022-09-09T16:21:33;3.60;;;2.58;;
67721;SDS011;58309;45.292;11.820;2022-09-09T16:24:01;3.67;;;2.38;;
67721;SDS011;58309;45.292;11.820;2022-09-09T16:26:28;8.20;;;2.35;;
67721;SDS011;58309;45.292;11.820;2022-09-09T16:28:56;2.63;;;2.42;;
67721;SDS011;58309;45.292;11.820;2022-09-09T16:31:24;3.35;;;2.22;;
67721;SDS011;58309;45.292;11.820;2022-09-09T16:33:50;3.10;;;2.22;;
67721;SDS011;58309;45.292;11.820;2022-09-09T16:36:17;7.72;;;2.75;;
67721;SDS011;58309;45.292;11.820;2022-09-09T16:38:44;4.38;;;2.30;;
67721;SDS011;58309;45.292;11.820;2022-09-09T16:41:10;3.08;;;2.05;;
67721;SDS011;58309;45.292;11.820;2022-09-09T16:43:37;4.80;;;2.45;;
67721;SDS011;58309;45.292;11.820;2022-09-09T16:46:10;7.13;;;3.05;;
67721;SDS011;58309;45.292;11.820;2022-09-09T16:48:44;5.90;;;2.83;;
67721;SDS011;58309;45.292;11.820;2022-09-09T16:51:16;5.32;;;3.10;;
67721;SDS011;58309;45.292;11.820;2022-09-09T16:53:47;4.75;;;3.30;;
67721;SDS011;58309;45.292;11.820;2022-09-09T16:56:14;6.18;;;3.25;;
67721;SDS011;58309;45.292;11.820;2022-09-09T16:58:41;5.90;;;2.90;;
67721;SDS011;58309;45.292;11.820;2022-09-09T17:01:10;5.20;;;2.90;;
67721;SDS011;58309;45.292;11.820;2022-09-09T17:03:39;4.10;;;3.15;;
67721;SDS011;58309;45.292;11.820;2022-09-09T17:06:09;6.40;;;2.90;;
67721;SDS011;58309;45.292;11.820;2022-09-09T17:08:40;5.15;;;3.05;;
67721;SDS011;58309;45.292;11.820;2022-09-09T17:13:43;9.25;;;3.08;;
67721;SDS011;58309;45.292;11.820;2022-09-09T17:16:10;6.70;;;2.80;;